KTIW/TIW METAR and TAF weather

Enter ICAO airport designator
Station Type Date Time Source
KTIW METAR 2020/10/22 02:53 UTC NOAA

KTIW 220253Z 00000KT 10SM FEW029 BKN060 OVC080 08/05 A3024 RMK AO2 SLP242 T00780050 53014


Station Type Date Time Source
KTIW Decoded METAR 2020/10/22 02:53 UTC NOAA

Tacoma, Tacoma Narrows Airport, WA, United States (KTIW) 47-16-03N 122-34-34W 96M
Oct 21, 2020 - 10:53 PM EDT / 2020.10.22 0253 UTC
Wind: Calm:0
Visibility: 10 mile(s):0
Sky conditions: overcast
Temperature: 46.0 F (7.8 C)
Dew Point: 41.0 F (5.0 C)
Relative Humidity: 82%
Pressure (altimeter): 30.24 in. Hg (1024 hPa)
Pressure tendency: 0.04 inches (1.4 hPa) higher than three hours ago
ob: KTIW 220253Z 00000KT 10SM FEW029 BKN060 OVC080 08/05 A3024 RMK AO2 SLP242 T00780050 53014
cycle: 3

Station Type Date Time Source
KTIW TAF UTC NOAA

Error!

Example: see airport list